Time;durP1;ratioP1;P1;durP2;ratioP2;P2;SDS_P1;SDS_P2;PMS_P1;PMS_P2;Temp;Humidity;BMP_temperature;BMP_pressure;BME280_temperature;BME280_humidity;BME280_pressure;Samples;Min_cycle;Max_cycle;Signal;HPM_P1;HPM_P2
2022/08/20 00:00:21;;;;;;;4.82;0.93;;;;;;;;;;5031864;28;20049;-67
2022/08/20 00:02:53;;;;;;;3.55;0.88;;;;;;;;;;5032185;28;20095;-67
2022/08/20 00:05:21;;;;;;;3.95;1.00;;;;;;;;;;5031730;28;20087;-67
2022/08/20 00:07:48;;;;;;;4.18;1.20;;;;;;;;;;5031657;28;20486;-67
2022/08/20 00:10:15;;;;;;;3.45;1.02;;;;;;;;;;5030627;28;20103;-67
2022/08/20 00:12:45;;;;;;;7.73;1.57;;;;;;;;;;5031674;28;20072;-67
2022/08/20 00:15:13;;;;;;;4.53;0.70;;;;;;;;;;5031664;28;20068;-67
2022/08/20 00:17:39;;;;;;;3.55;0.93;;;;;;;;;;5031739;28;20054;-67
2022/08/20 00:20:08;;;;;;;3.97;0.80;;;;;;;;;;5031923;28;20103;-67
2022/08/20 00:22:35;;;;;;;3.90;0.95;;;;;;;;;;5031880;28;20076;-67
2022/08/20 00:25:03;;;;;;;3.60;1.05;;;;;;;;;;5030283;28;20046;-67
2022/08/20 00:27:29;;;;;;;5.72;1.20;;;;;;;;;;5031848;28;20123;-66
2022/08/20 00:29:56;;;;;;;3.72;0.70;;;;;;;;;;5031895;28;20085;-67
2022/08/20 00:32:22;;;;;;;4.40;1.48;;;;;;;;;;5031820;28;20088;-67
2022/08/20 00:34:49;;;;;;;6.32;1.33;;;;;;;;;;5031795;28;20083;-67
2022/08/20 00:37:15;;;;;;;5.67;1.00;;;;;;;;;;5031583;28;20084;-66
2022/08/20 00:39:42;;;;;;;4.97;0.93;;;;;;;;;;5031523;28;20318;-67
2022/08/20 00:42:09;;;;;;;4.63;1.65;;;;;;;;;;5031494;28;20164;-67
2022/08/20 00:44:35;;;;;;;6.03;1.90;;;;;;;;;;5031511;28;20486;-67
2022/08/20 00:47:03;;;;;;;4.40;1.02;;;;;;;;;;5031575;28;20088;-67
2022/08/20 00:49:30;;;;;;;5.78;1.35;;;;;;;;;;5031442;28;20072;-67
2022/08/20 00:51:57;;;;;;;8.30;1.13;;;;;;;;;;5031707;28;20045;-67
2022/08/20 00:54:26;;;;;;;4.80;0.98;;;;;;;;;;5031326;28;20115;-67
2022/08/20 00:57:03;;;;;;;5.43;1.55;;;;;;;;;;5031357;28;20493;-67
2022/08/20 00:59:33;;;;;;;4.75;1.30;;;;;;;;;;5029918;28;20046;-67
2022/08/20 01:01:59;;;;;;;6.68;1.20;;;;;;;;;;5031280;28;20081;-67
2022/08/20 01:04:27;;;;;;;5.85;1.10;;;;;;;;;;5031325;28;20060;-67
2022/08/20 01:06:54;;;;;;;5.25;1.30;;;;;;;;;;5031358;28;20107;-67
2022/08/20 01:09:21;;;;;;;6.88;1.08;;;;;;;;;;5031188;28;20448;-67
2022/08/20 01:12:08;;;;;;;4.97;1.33;;;;;;;;;;5031407;28;20053;-67
2022/08/20 01:14:45;;;;;;;6.65;1.33;;;;;;;;;;5031508;28;20050;-67
2022/08/20 01:17:17;;;;;;;5.20;1.50;;;;;;;;;;5031029;28;20065;-67
2022/08/20 01:19:49;;;;;;;4.68;0.88;;;;;;;;;;5031183;28;20091;-67
2022/08/20 01:25:08;;;;;;;5.63;1.10;;;;;;;;;;5035075;28;20288;-67
2022/08/20 01:27:36;;;;;;;4.97;1.38;;;;;;;;;;5033786;28;20080;-67
2022/08/20 01:30:08;;;;;;;5.97;1.35;;;;;;;;;;5034917;28;20189;-67
2022/08/20 01:32:34;;;;;;;4.80;1.07;;;;;;;;;;5034913;28;20068;-67
2022/08/20 01:35:01;;;;;;;9.02;1.70;;;;;;;;;;5034620;28;20084;-67
2022/08/20 01:37:27;;;;;;;5.25;1.15;;;;;;;;;;5034768;28;20045;-67
2022/08/20 01:39:57;;;;;;;3.63;1.20;;;;;;;;;;5034785;28;20096;-67
2022/08/20 01:42:29;;;;;;;6.10;1.25;;;;;;;;;;5034740;28;20041;-67
2022/08/20 01:44:55;;;;;;;5.93;1.20;;;;;;;;;;5034561;28;20508;-67
2022/08/20 01:47:27;;;;;;;5.10;1.13;;;;;;;;;;5033350;28;20144;-66
2022/08/20 01:49:55;;;;;;;4.57;1.30;;;;;;;;;;5034634;28;20077;-67
2022/08/20 01:52:32;;;;;;;4.47;1.27;;;;;;;;;;5034228;28;20073;-67
2022/08/20 01:54:58;;;;;;;7.00;1.45;;;;;;;;;;5034298;28;20513;-66
2022/08/20 01:57:25;;;;;;;4.93;1.20;;;;;;;;;;5034326;28;20053;-67
2022/08/20 01:59:52;;;;;;;6.07;1.52;;;;;;;;;;5034103;28;20817;-67
2022/08/20 02:02:19;;;;;;;4.07;1.17;;;;;;;;;;5034133;28;20085;-67
2022/08/20 02:04:46;;;;;;;3.03;0.97;;;;;;;;;;5020609;28;20080;-67
2022/08/20 02:07:14;;;;;;;5.22;1.55;;;;;;;;;;5033890;28;20107;-67
2022/08/20 02:09:41;;;;;;;6.78;1.30;;;;;;;;;;5033826;28;20485;-67
2022/08/20 02:12:08;;;;;;;5.22;1.40;;;;;;;;;;5034210;28;20073;-67
2022/08/20 02:14:38;;;;;;;7.70;2.00;;;;;;;;;;5034176;28;20126;-66
2022/08/20 02:17:05;;;;;;;4.80;1.60;;;;;;;;;;5033762;28;20089;-67
2022/08/20 02:19:32;;;;;;;;;;;;;;;;;;5034541;28;20084;-67
2022/08/20 02:22:00;;;;;;;6.43;1.63;;;;;;;;;;5033690;28;19957;-66
2022/08/20 02:24:26;;;;;;;8.02;1.60;;;;;;;;;;5033639;28;20077;-67
2022/08/20 02:26:53;;;;;;;7.60;1.60;;;;;;;;;;5033530;28;20081;-66
2022/08/20 02:29:19;;;;;;;3.20;1.50;;;;;;;;;;5032551;28;20600;-67
2022/08/20 02:31:46;;;;;;;7.45;1.67;;;;;;;;;;5033792;28;20073;-67
2022/08/20 02:34:36;;;;;;;8.80;2.25;;;;;;;;;;5032903;28;20493;-67
2022/08/20 02:37:04;;;;;;;8.00;1.65;;;;;;;;;;5033418;28;20559;-66
2022/08/20 02:39:31;;;;;;;9.45;1.92;;;;;;;;;;5033701;28;20103;-67
2022/08/20 02:41:57;;;;;;;4.82;1.40;;;;;;;;;;5033765;28;20057;-66
2022/08/20 02:44:24;;;;;;;4.38;1.50;;;;;;;;;;5033320;28;20084;-66
2022/08/20 02:46:50;;;;;;;5.70;1.40;;;;;;;;;;5033263;28;20089;-67
2022/08/20 02:49:17;;;;;;;7.20;1.60;;;;;;;;;;5033090;28;20532;-66
2022/08/20 02:51:44;;;;;;;7.22;1.77;;;;;;;;;;5032300;28;20107;-66
2022/08/20 02:54:11;;;;;;;7.38;1.33;;;;;;;;;;5032985;28;20085;-66
2022/08/20 02:56:38;;;;;;;7.43;1.53;;;;;;;;;;5033200;28;20049;-66
2022/08/20 02:59:04;;;;;;;10.07;2.07;;;;;;;;;;5032967;28;20532;-66
2022/08/20 03:01:31;;;;;;;6.75;1.70;;;;;;;;;;5032981;28;20314;-66
2022/08/20 03:04:01;;;;;;;6.45;1.80;;;;;;;;;;5032907;28;20500;-66
2022/08/20 03:06:28;;;;;;;7.45;1.80;;;;;;;;;;5032807;28;20543;-66
2022/08/20 03:08:55;;;;;;;7.27;1.97;;;;;;;;;;5033206;28;20087;-66
2022/08/20 03:11:21;;;;;;;6.60;1.67;;;;;;;;;;5033005;28;20041;-66
2022/08/20 03:13:47;;;;;;;7.03;1.60;;;;;;;;;;5033026;28;20195;-66
2022/08/20 03:16:14;;;;;;;10.65;1.73;;;;;;;;;;5032794;28;20111;-66
2022/08/20 03:18:43;;;;;;;6.80;2.15;;;;;;;;;;5031371;28;20091;-66
2022/08/20 03:21:11;;;;;;;8.85;1.67;;;;;;;;;;5033038;28;20378;-66
2022/08/20 03:23:40;;;;;;;7.95;1.77;;;;;;;;;;5032624;28;20420;-66
2022/08/20 03:26:08;;;;;;;9.02;2.25;;;;;;;;;;5032466;28;20517;-66
2022/08/20 03:28:35;;;;;;;11.05;1.88;;;;;;;;;;5032665;28;20056;-66
2022/08/20 03:31:02;;;;;;;7.70;2.08;;;;;;;;;;5032404;28;20076;-66
2022/08/20 03:33:30;;;;;;;8.32;2.00;;;;;;;;;;5032283;28;20072;-66
2022/08/20 03:35:57;;;;;;;7.95;2.10;;;;;;;;;;5032278;28;20501;-66
2022/08/20 03:38:24;;;;;;;10.37;2.30;;;;;;;;;;5032616;28;20049;-66
2022/08/20 03:40:59;;;;;;;5.65;1.40;;;;;;;;;;5032353;28;20064;-66
2022/08/20 03:43:26;;;;;;;7.47;1.92;;;;;;;;;;5032512;28;20130;-66
2022/08/20 03:45:52;;;;;;;6.28;2.00;;;;;;;;;;5030300;28;20080;-66
2022/08/20 03:48:19;;;;;;;5.60;1.88;;;;;;;;;;5032028;28;20149;-66
2022/08/20 03:50:45;;;;;;;10.00;1.92;;;;;;;;;;5032268;28;20085;-66
2022/08/20 03:53:12;;;;;;;10.48;1.85;;;;;;;;;;5032009;28;20623;-66
2022/08/20 03:55:41;;;;;;;8.43;1.73;;;;;;;;;;5032034;28;20069;-66
2022/08/20 03:58:11;;;;;;;12.63;2.08;;;;;;;;;;5032458;28;20085;-66
2022/08/20 04:00:37;;;;;;;9.10;2.58;;;;;;;;;;5031740;28;20042;-66
2022/08/20 04:03:05;;;;;;;8.75;2.13;;;;;;;;;;5032030;28;20050;-66
2022/08/20 04:05:33;;;;;;;8.27;2.15;;;;;;;;;;5030588;28;20084;-66
2022/08/20 04:08:00;;;;;;;10.35;1.83;;;;;;;;;;5031856;28;20132;-66
2022/08/20 04:10:28;;;;;;;8.48;2.22;;;;;;;;;;5031879;28;20045;-66
2022/08/20 04:12:55;;;;;;;8.77;1.75;;;;;;;;;;5031744;28;20081;-66
2022/08/20 04:15:23;;;;;;;10.10;2.17;;;;;;;;;;5032030;28;20045;-66
2022/08/20 04:17:51;;;;;;;10.30;2.08;;;;;;;;;;5031720;28;20049;-67
2022/08/20 04:20:21;;;;;;;7.97;1.80;;;;;;;;;;5031962;28;20057;-67
2022/08/20 04:22:51;;;;;;;10.77;2.20;;;;;;;;;;5031932;28;20073;-67
2022/08/20 04:25:25;;;;;;;9.77;1.73;;;;;;;;;;5032039;28;20069;-67
2022/08/20 04:27:52;;;;;;;10.32;1.83;;;;;;;;;;5031720;28;20482;-67
2022/08/20 04:30:21;;;;;;;5.88;1.40;;;;;;;;;;5031933;28;20041;-67
2022/08/20 04:32:48;;;;;;;5.78;1.77;;;;;;;;;;5031751;28;20049;-66
2022/08/20 04:35:16;;;;;;;;;;;;;;;;;;5032052;28;20135;-66
2022/08/20 04:37:46;;;;;;;10.40;2.30;;;;;;;;;;5031724;28;19928;-67
2022/08/20 04:43:03;;;;;;;8.07;1.80;;;;;;;;;;5031755;28;20045;-66
2022/08/20 04:45:30;;;;;;;7.45;1.95;;;;;;;;;;5031708;28;20049;-67
2022/08/20 04:48:04;;;;;;;7.43;2.00;;;;;;;;;;5031680;28;20095;-67
2022/08/20 04:50:35;;;;;;;6.38;1.50;;;;;;;;;;5031434;28;20497;-67
2022/08/20 04:53:03;;;;;;;8.52;1.92;;;;;;;;;;5031359;28;20127;-67
2022/08/20 04:55:30;;;;;;;8.20;1.88;;;;;;;;;;5031463;28;20076;-66
2022/08/20 04:58:06;;;;;;;7.93;1.90;;;;;;;;;;5033749;28;20092;-67
2022/08/20 05:00:33;;;;;;;7.10;1.97;;;;;;;;;;5034152;28;20072;-67
2022/08/20 05:03:00;;;;;;;9.15;2.20;;;;;;;;;;5035561;28;20179;-66
2022/08/20 05:05:27;;;;;;;7.53;1.70;;;;;;;;;;5035097;28;20493;-66
2022/08/20 05:07:54;;;;;;;11.68;2.22;;;;;;;;;;5035122;28;20501;-66
2022/08/20 05:10:22;;;;;;;;;;;;;;;;;;5035557;28;20049;-66
2022/08/20 05:12:49;;;;;;;5.22;1.70;;;;;;;;;;5035313;28;19967;-66
2022/08/20 05:15:23;;;;;;;7.28;1.95;;;;;;;;;;5034060;28;20046;-66
2022/08/20 05:17:53;;;;;;;7.93;1.67;;;;;;;;;;5034829;28;20517;-66
2022/08/20 05:20:20;;;;;;;9.05;2.00;;;;;;;;;;5033847;28;20081;-66
2022/08/20 05:22:46;;;;;;;11.60;2.13;;;;;;;;;;5035136;28;20080;-66
2022/08/20 05:25:13;;;;;;;11.80;2.58;;;;;;;;;;5035053;28;20081;-66
2022/08/20 05:27:40;;;;;;;9.45;2.05;;;;;;;;;;5035040;28;20045;-66
2022/08/20 05:30:13;;;;;;;6.78;1.70;;;;;;;;;;5035107;28;20046;-66
2022/08/20 05:32:40;;;;;;;;;;;;;;;;;;5035315;28;20425;-66
2022/08/20 05:35:10;;;;;;;10.27;2.08;;;;;;;;;;5034826;28;19924;-66
2022/08/20 05:37:37;;;;;;;9.17;2.00;;;;;;;;;;5034377;28;20518;-66
2022/08/20 05:40:11;;;;;;;10.35;2.00;;;;;;;;;;5034527;28;20091;-66
2022/08/20 05:42:38;;;;;;;7.95;1.88;;;;;;;;;;5034673;28;20472;-66
2022/08/20 05:45:05;;;;;;;13.48;2.28;;;;;;;;;;5034543;28;20057;-65
2022/08/20 05:47:39;;;;;;;7.30;1.70;;;;;;;;;;5034433;28;20099;-66
2022/08/20 05:50:09;;;;;;;8.05;1.63;;;;;;;;;;5034450;28;20554;-66
2022/08/20 05:52:45;;;;;;;13.75;2.13;;;;;;;;;;5034718;28;20406;-66
2022/08/20 05:55:15;;;;;;;7.28;1.83;;;;;;;;;;5034327;28;20453;-66
2022/08/20 05:57:41;;;;;;;8.52;2.10;;;;;;;;;;5034279;28;20049;-67
2022/08/20 06:00:10;;;;;;;8.10;1.50;;;;;;;;;;5033958;28;20077;-66
2022/08/20 06:05:22;;;;;;;7.00;1.65;;;;;;;;;;5034225;28;20080;-66
2022/08/20 06:07:49;;;;;;;9.35;1.95;;;;;;;;;;5034045;28;20088;-67
2022/08/20 06:10:19;;;;;;;11.43;2.20;;;;;;;;;;5033177;28;20042;-66
2022/08/20 06:12:46;;;;;;;8.75;1.95;;;;;;;;;;5034094;28;20108;-66
2022/08/20 06:15:13;;;;;;;9.48;1.80;;;;;;;;;;5033930;28;20080;-66
2022/08/20 06:17:39;;;;;;;4.78;1.95;;;;;;;;;;5032503;28;20057;-66
2022/08/20 06:20:09;;;;;;;5.78;1.75;;;;;;;;;;5028512;28;20829;-66
2022/08/20 06:22:36;;;;;;;8.02;1.75;;;;;;;;;;5030203;28;20416;-66
2022/08/20 06:25:05;;;;;;;8.20;1.75;;;;;;;;;;5033403;28;20056;-66
2022/08/20 06:27:32;;;;;;;7.53;1.73;;;;;;;;;;5032929;28;20511;-66
2022/08/20 06:30:01;;;;;;;9.80;1.95;;;;;;;;;;5033085;28;20508;-66
2022/08/20 06:32:27;;;;;;;7.30;1.38;;;;;;;;;;5033155;28;20456;-66
2022/08/20 06:35:00;;;;;;;8.68;2.13;;;;;;;;;;5032952;28;20095;-66
2022/08/20 06:37:28;;;;;;;7.95;1.83;;;;;;;;;;5033341;28;20467;-67
2022/08/20 06:40:02;;;;;;;9.15;1.70;;;;;;;;;;5033084;28;20097;-67
2022/08/20 06:42:28;;;;;;;9.07;1.88;;;;;;;;;;5032877;28;20520;-67
2022/08/20 06:44:55;;;;;;;9.68;1.70;;;;;;;;;;5032885;28;20061;-67
2022/08/20 06:47:22;;;;;;;9.65;1.85;;;;;;;;;;5033238;28;20049;-66
2022/08/20 06:49:49;;;;;;;5.17;1.30;;;;;;;;;;5033120;28;20041;-66
2022/08/20 06:52:15;;;;;;;6.75;1.98;;;;;;;;;;5033016;28;20314;-66
2022/08/20 06:54:43;;;;;;;14.20;2.00;;;;;;;;;;5030405;28;20088;-66
2022/08/20 06:57:09;;;;;;;9.27;2.00;;;;;;;;;;5032745;28;20084;-67
2022/08/20 06:59:36;;;;;;;7.95;1.80;;;;;;;;;;5032616;28;20077;-65
2022/08/20 07:02:02;;;;;;;7.82;2.13;;;;;;;;;;5032625;28;20073;-66
2022/08/20 07:04:29;;;;;;;6.75;1.65;;;;;;;;;;5032650;28;20080;-66
2022/08/20 07:06:56;;;;;;;9.23;2.20;;;;;;;;;;5032167;28;20077;-66
2022/08/20 07:09:22;;;;;;;;;;;;;;;;;;5033019;28;20084;-66
2022/08/20 07:11:49;;;;;;;4.85;1.30;;;;;;;;;;5032586;28;19925;-66
2022/08/20 07:14:16;;;;;;;4.70;1.40;;;;;;;;;;5032128;28;20100;-65
2022/08/20 07:16:43;;;;;;;5.43;1.08;;;;;;;;;;5031862;28;20177;-66
2022/08/20 07:19:09;;;;;;;7.87;1.93;;;;;;;;;;5032391;28;20092;-66
2022/08/20 07:21:36;;;;;;;6.10;1.45;;;;;;;;;;5030781;28;20286;-71
2022/08/20 07:24:02;;;;;;;8.75;1.30;;;;;;;;;;5032273;28;20057;-71
2022/08/20 07:26:29;;;;;;;5.95;1.63;;;;;;;;;;5031805;28;20045;-71
2022/08/20 07:28:55;;;;;;;9.65;1.80;;;;;;;;;;5032133;28;20088;-71
2022/08/20 07:34:10;;;;;;;6.80;1.60;;;;;;;;;;5032172;28;20085;-71
2022/08/20 07:36:36;;;;;;;6.43;1.90;;;;;;;;;;5031974;28;20111;-72
2022/08/20 07:39:04;;;;;;;6.00;1.63;;;;;;;;;;5017669;28;20089;-74
2022/08/20 07:41:32;;;;;;;6.55;1.65;;;;;;;;;;5031018;28;20057;-74
2022/08/20 07:43:58;;;;;;;8.25;1.92;;;;;;;;;;5031512;28;20089;-74
2022/08/20 07:46:24;;;;;;;8.75;1.80;;;;;;;;;;5031453;28;20512;-73
2022/08/20 07:48:56;;;;;;;11.55;1.95;;;;;;;;;;5031063;28;20111;-77
2022/08/20 07:51:23;;;;;;;8.35;1.65;;;;;;;;;;5031596;28;20393;-75
2022/08/20 07:53:50;;;;;;;5.23;1.93;;;;;;;;;;5029225;28;20089;-72
2022/08/20 07:56:18;;;;;;;;;;;;;;;;;;5031715;28;20103;-77
2022/08/20 07:58:48;;;;;;;9.48;2.05;;;;;;;;;;5030769;28;20023;-75
2022/08/20 08:01:15;;;;;;;9.63;1.80;;;;;;;;;;5030845;28;20053;-75
2022/08/20 08:03:42;;;;;;;9.82;1.88;;;;;;;;;;5030211;28;20085;-73
2022/08/20 08:06:19;;;;;;;8.27;1.60;;;;;;;;;;5031621;28;20049;-73
2022/08/20 08:09:08;;;;;;;9.02;1.70;;;;;;;;;;5030167;28;20081;-77
2022/08/20 08:11:36;;;;;;;6.72;1.50;;;;;;;;;;5031078;28;20455;-73
2022/08/20 08:14:05;;;;;;;7.25;1.70;;;;;;;;;;5030850;28;20099;-79
2022/08/20 08:16:33;;;;;;;7.05;1.73;;;;;;;;;;5029508;28;20049;-77
2022/08/20 08:19:00;;;;;;;5.80;1.52;;;;;;;;;;5031431;28;20111;-70
2022/08/20 08:21:28;;;;;;;10.52;1.63;;;;;;;;;;5030977;28;20055;-74
2022/08/20 08:23:55;;;;;;;7.20;2.10;;;;;;;;;;5023956;28;20421;-75
2022/08/20 08:26:22;;;;;;;7.70;2.17;;;;;;;;;;5025454;28;20064;-76
2022/08/20 08:28:48;;;;;;;6.20;1.70;;;;;;;;;;5030297;28;20139;-71
2022/08/20 08:31:14;;;;;;;7.18;2.05;;;;;;;;;;5030754;28;20123;-74
2022/08/20 08:33:41;;;;;;;4.28;1.60;;;;;;;;;;5030975;28;20049;-73
2022/08/20 08:36:09;;;;;;;5.45;1.50;;;;;;;;;;5031377;28;20099;-75
2022/08/20 08:38:37;;;;;;;6.05;1.55;;;;;;;;;;5030955;28;20451;-72
2022/08/20 08:41:14;;;;;;;5.72;1.30;;;;;;;;;;5030462;28;20103;-75
2022/08/20 08:43:41;;;;;;;5.57;1.20;;;;;;;;;;5031104;28;20046;-72
2022/08/20 08:46:09;;;;;;;6.75;1.52;;;;;;;;;;5030705;28;20065;-73
2022/08/20 08:48:43;;;;;;;6.57;1.80;;;;;;;;;;5030927;28;20081;-72
2022/08/20 08:51:11;;;;;;;8.00;1.70;;;;;;;;;;5030943;28;20103;-71
2022/08/20 08:53:52;;;;;;;4.97;1.60;;;;;;;;;;5031036;28;20417;-73
2022/08/20 08:56:19;;;;;;;6.13;1.67;;;;;;;;;;5028323;28;20045;-70
2022/08/20 08:58:45;;;;;;;5.85;1.55;;;;;;;;;;5030909;28;20460;-70
2022/08/20 09:01:14;;;;;;;6.18;1.65;;;;;;;;;;5030581;28;20085;-70
2022/08/20 09:04:01;;;;;;;5.50;1.60;;;;;;;;;;5030782;28;20056;-71
2022/08/20 09:06:27;;;;;;;5.68;1.55;;;;;;;;;;5030510;28;20578;-69
2022/08/20 09:09:04;;;;;;;5.20;1.60;;;;;;;;;;5029477;28;20049;-72
2022/08/20 09:11:42;;;;;;;6.05;1.40;;;;;;;;;;5030487;28;20567;-71
2022/08/20 09:14:08;;;;;;;;;;;;;;;;;;5029750;28;20481;-71
2022/08/20 09:16:35;;;;;;;7.47;1.63;;;;;;;;;;5030476;28;19921;-70
2022/08/20 09:19:17;;;;;;;5.82;1.30;;;;;;;;;;5019687;28;20158;-68
2022/08/20 09:21:44;;;;;;;5.78;1.75;;;;;;;;;;5030759;28;20418;-69
2022/08/20 09:24:10;;;;;;;5.78;1.73;;;;;;;;;;5030397;28;20073;-70
2022/08/20 09:26:37;;;;;;;6.20;1.55;;;;;;;;;;5030075;28;20127;-70
2022/08/20 09:29:04;;;;;;;6.05;1.52;;;;;;;;;;5030108;28;20446;-68
2022/08/20 09:31:31;;;;;;;5.00;1.50;;;;;;;;;;5029341;28;20073;-67
2022/08/20 09:33:58;;;;;;;6.72;1.48;;;;;;;;;;5027769;28;20054;-68
2022/08/20 09:36:25;;;;;;;5.20;1.17;;;;;;;;;;5028598;28;20432;-67
2022/08/20 09:38:59;;;;;;;7.97;1.58;;;;;;;;;;5027583;28;20509;-72
2022/08/20 09:41:25;;;;;;;7.07;1.80;;;;;;;;;;5028540;28;20552;-65
2022/08/20 09:43:52;;;;;;;4.70;1.20;;;;;;;;;;5030889;28;20604;-67
2022/08/20 09:46:18;;;;;;;6.78;1.95;;;;;;;;;;5033770;28;20523;-70
2022/08/20 09:48:52;;;;;;;7.30;1.55;;;;;;;;;;5033830;28;20053;-70
2022/08/20 09:51:19;;;;;;;6.70;1.75;;;;;;;;;;5034958;28;20081;-73
2022/08/20 09:53:45;;;;;;;8.27;1.75;;;;;;;;;;5034266;28;20068;-74
2022/08/20 09:56:12;;;;;;;7.88;1.30;;;;;;;;;;5034161;28;20053;-70
2022/08/20 09:58:39;;;;;;;6.47;1.70;;;;;;;;;;5033511;28;20092;-71
2022/08/20 10:01:10;;;;;;;5.82;1.20;;;;;;;;;;5034107;28;20405;-72
2022/08/20 10:03:40;;;;;;;7.50;1.50;;;;;;;;;;5034223;28;20067;-71
2022/08/20 10:06:07;;;;;;;6.80;1.80;;;;;;;;;;5033532;28;20049;-70
2022/08/20 10:08:33;;;;;;;6.43;2.03;;;;;;;;;;5032531;28;20109;-74
2022/08/20 10:11:00;;;;;;;5.72;1.55;;;;;;;;;;5033760;28;20041;-72
2022/08/20 10:13:26;;;;;;;3.88;1.23;;;;;;;;;;5033824;28;20049;-67
2022/08/20 10:15:53;;;;;;;6.57;1.48;;;;;;;;;;5033715;28;20103;-70
2022/08/20 10:18:19;;;;;;;4.22;1.48;;;;;;;;;;5033309;28;20092;-70
2022/08/20 10:20:46;;;;;;;5.43;1.25;;;;;;;;;;5031074;28;20535;-71
2022/08/20 10:23:12;;;;;;;5.20;1.35;;;;;;;;;;5031784;28;20045;-71
2022/08/20 10:25:40;;;;;;;4.43;1.30;;;;;;;;;;5032832;28;20061;-71
2022/08/20 10:28:06;;;;;;;5.93;1.55;;;;;;;;;;5032190;28;20115;-71
2022/08/20 10:30:33;;;;;;;4.93;1.80;;;;;;;;;;5033693;28;20041;-70
2022/08/20 10:33:00;;;;;;;3.17;1.30;;;;;;;;;;5033242;28;20433;-70
2022/08/20 10:35:26;;;;;;;7.30;1.65;;;;;;;;;;5033178;28;20069;-69
2022/08/20 10:37:53;;;;;;;5.72;1.50;;;;;;;;;;5032987;28;20099;-70
2022/08/20 10:40:19;;;;;;;4.70;1.70;;;;;;;;;;5032792;28;20489;-69
2022/08/20 10:42:46;;;;;;;5.15;1.52;;;;;;;;;;5031640;28;20042;-73
2022/08/20 10:45:13;;;;;;;6.80;1.65;;;;;;;;;;5032833;28;20379;-70
2022/08/20 10:47:40;;;;;;;4.60;1.33;;;;;;;;;;5032656;28;20524;-69
2022/08/20 10:50:09;;;;;;;5.72;1.75;;;;;;;;;;5031766;28;20045;-71
2022/08/20 10:52:36;;;;;;;9.82;2.03;;;;;;;;;;5032854;28;20052;-71
2022/08/20 10:55:03;;;;;;;4.88;1.52;;;;;;;;;;5032508;28;20547;-71
2022/08/20 10:57:32;;;;;;;3.70;1.38;;;;;;;;;;5032967;28;20122;-71
2022/08/20 10:59:59;;;;;;;3.80;1.42;;;;;;;;;;5032838;28;20501;-71
2022/08/20 11:02:25;;;;;;;;;;;;;;;;;;5033574;28;20092;-69
2022/08/20 11:04:52;;;;;;;3.10;1.40;;;;;;;;;;5031704;28;19924;-70
2022/08/20 11:07:27;;;;;;;3.70;1.40;;;;;;;;;;5031128;28;20053;-69
2022/08/20 11:10:14;;;;;;;5.93;1.60;;;;;;;;;;5032348;28;20046;-71
2022/08/20 11:12:41;;;;;;;;;;;;;;;;;;5032610;28;20042;-70
2022/08/20 11:15:09;;;;;;;3.90;1.48;;;;;;;;;;5032294;28;19979;-72
2022/08/20 11:17:38;;;;;;;4.43;1.40;;;;;;;;;;5032477;28;20150;-70
2022/08/20 11:20:06;;;;;;;6.07;1.60;;;;;;;;;;5032517;28;20049;-72
2022/08/20 11:22:33;;;;;;;4.82;1.58;;;;;;;;;;5031892;28;20042;-70
2022/08/20 11:24:59;;;;;;;5.68;1.60;;;;;;;;;;5032259;28;20513;-69
2022/08/20 11:27:32;;;;;;;8.98;1.70;;;;;;;;;;5031895;28;20477;-69
2022/08/20 11:29:58;;;;;;;4.18;1.45;;;;;;;;;;5032196;28;20126;-67
2022/08/20 11:32:25;;;;;;;4.75;1.50;;;;;;;;;;5030846;28;20041;-69
2022/08/20 11:34:52;;;;;;;6.13;1.42;;;;;;;;;;5030171;28;20045;-72
2022/08/20 11:37:20;;;;;;;4.65;1.50;;;;;;;;;;5031111;28;20049;-67
2022/08/20 11:39:46;;;;;;;5.45;1.40;;;;;;;;;;5031925;28;20053;-67
2022/08/20 11:42:13;;;;;;;4.90;1.48;;;;;;;;;;5032090;28;20050;-69
2022/08/20 11:44:39;;;;;;;6.57;2.05;;;;;;;;;;5031720;28;20493;-73
2022/08/20 11:47:06;;;;;;;4.75;1.20;;;;;;;;;;5031706;28;20084;-67
2022/08/20 11:49:34;;;;;;;3.75;1.30;;;;;;;;;;5031821;28;20081;-64
2022/08/20 11:52:00;;;;;;;4.38;1.67;;;;;;;;;;5031966;28;20053;-64
2022/08/20 11:54:27;;;;;;;6.60;1.48;;;;;;;;;;5032289;28;20045;-64
2022/08/20 11:56:56;;;;;;;4.47;1.55;;;;;;;;;;5030770;28;20107;-64
2022/08/20 11:59:23;;;;;;;5.85;1.70;;;;;;;;;;5031802;28;20357;-64
2022/08/20 12:01:52;;;;;;;4.35;1.40;;;;;;;;;;5030845;28;20084;-64
2022/08/20 12:04:27;;;;;;;4.07;1.40;;;;;;;;;;5030816;28;20049;-64
2022/08/20 12:07:06;;;;;;;4.97;1.50;;;;;;;;;;5031224;28;20424;-64
2022/08/20 12:09:32;;;;;;;4.35;1.38;;;;;;;;;;5030783;28;20065;-65
2022/08/20 12:11:59;;;;;;;5.65;1.60;;;;;;;;;;5031554;28;20493;-64
2022/08/20 12:14:26;;;;;;;5.53;1.55;;;;;;;;;;5030479;28;20547;-64
2022/08/20 12:16:52;;;;;;;;;;;;;;;;;;5032064;28;20202;-64
2022/08/20 12:19:18;;;;;;;5.25;1.73;;;;;;;;;;5031604;28;19964;-64
2022/08/20 12:21:45;;;;;;;4.28;1.05;;;;;;;;;;5031579;28;20053;-64
2022/08/20 12:24:11;;;;;;;3.88;1.75;;;;;;;;;;5030412;28;20057;-64
2022/08/20 12:26:38;;;;;;;3.72;1.08;;;;;;;;;;5031814;28;20099;-64
2022/08/20 12:29:04;;;;;;;2.85;1.00;;;;;;;;;;5031689;28;20088;-65
2022/08/20 12:31:31;;;;;;;2.97;1.10;;;;;;;;;;5031462;28;20049;-64
2022/08/20 12:33:57;;;;;;;;;;;;;;;;;;5031934;28;20068;-64
2022/08/20 12:36:25;;;;;;;3.80;1.23;;;;;;;;;;5030203;28;19960;-64
2022/08/20 12:38:51;;;;;;;2.42;1.10;;;;;;;;;;5031562;28;20053;-64
2022/08/20 12:41:18;;;;;;;5.63;1.23;;;;;;;;;;5031653;28;20049;-64
2022/08/20 12:43:44;;;;;;;2.85;1.33;;;;;;;;;;5031677;28;20049;-64
2022/08/20 12:46:11;;;;;;;2.63;1.10;;;;;;;;;;5031577;28;20091;-64
2022/08/20 12:48:37;;;;;;;;;;;;;;;;;;5031952;28;20104;-64
2022/08/20 12:51:03;;;;;;;4.55;1.45;;;;;;;;;;5031227;28;20373;-65
2022/08/20 12:53:30;;;;;;;4.28;1.67;;;;;;;;;;5031247;28;20076;-64
2022/08/20 12:55:56;;;;;;;3.33;1.10;;;;;;;;;;5031530;28;20068;-65
2022/08/20 12:58:23;;;;;;;2.63;0.95;;;;;;;;;;5031422;28;20448;-64
2022/08/20 13:00:50;;;;;;;2.17;1.13;;;;;;;;;;5031124;28;20655;-64
2022/08/20 13:03:17;;;;;;;2.33;1.02;;;;;;;;;;5029879;28;20045;-65
2022/08/20 13:05:43;;;;;;;2.88;1.30;;;;;;;;;;5030111;28;20096;-64
2022/08/20 13:08:10;;;;;;;;;;;;;;;;;;5031445;28;20057;-65
2022/08/20 13:10:42;;;;;;;3.17;1.15;;;;;;;;;;5031057;28;19921;-64
2022/08/20 13:13:10;;;;;;;2.45;1.00;;;;;;;;;;5031281;28;20141;-65
2022/08/20 13:15:37;;;;;;;5.50;1.40;;;;;;;;;;5031293;28;20071;-65
2022/08/20 13:18:04;;;;;;;4.18;1.30;;;;;;;;;;5031842;28;20057;-64
2022/08/20 13:20:31;;;;;;;3.05;1.33;;;;;;;;;;5035025;28;20069;-65
2022/08/20 13:23:00;;;;;;;3.17;1.02;;;;;;;;;;5035090;28;20402;-65
2022/08/20 13:25:27;;;;;;;4.43;1.27;;;;;;;;;;5034976;28;20053;-65
2022/08/20 13:27:53;;;;;;;;;;;;;;;;;;5035143;28;20501;-64
2022/08/20 13:30:20;;;;;;;2.53;1.42;;;;;;;;;;5034681;28;19968;-65
2022/08/20 13:32:46;;;;;;;2.65;1.40;;;;;;;;;;5033507;28;20042;-65
2022/08/20 13:35:12;;;;;;;;;;;;;;;;;;5035312;28;20054;-64
2022/08/20 13:37:40;;;;;;;3.78;1.48;;;;;;;;;;5034759;28;19959;-64
2022/08/20 13:40:08;;;;;;;5.05;1.50;;;;;;;;;;5034782;28;20077;-64
2022/08/20 13:42:34;;;;;;;3.22;1.25;;;;;;;;;;5034605;28;20053;-64
2022/08/20 13:45:02;;;;;;;5.43;1.58;;;;;;;;;;5034417;28;20461;-64
2022/08/20 13:47:31;;;;;;;3.55;1.25;;;;;;;;;;5034495;28;20077;-64
2022/08/20 13:50:24;;;;;;;3.67;1.42;;;;;;;;;;5034399;28;20057;-64
2022/08/20 13:52:50;;;;;;;6.18;1.45;;;;;;;;;;5033920;28;20103;-64
2022/08/20 13:55:18;;;;;;;4.90;1.65;;;;;;;;;;5030491;28;20042;-65
2022/08/20 13:57:45;;;;;;;3.25;1.45;;;;;;;;;;5029858;28;20123;-65
2022/08/20 14:00:13;;;;;;;4.63;1.73;;;;;;;;;;5032539;28;20450;-65
2022/08/20 14:02:40;;;;;;;4.20;1.38;;;;;;;;;;5031151;28;20049;-66
2022/08/20 14:05:07;;;;;;;3.83;1.33;;;;;;;;;;5032790;28;20079;-65
2022/08/20 14:07:35;;;;;;;3.88;1.35;;;;;;;;;;5032862;28;20429;-65
2022/08/20 14:10:10;;;;;;;5.63;1.70;;;;;;;;;;5033111;28;20093;-66
2022/08/20 14:12:37;;;;;;;3.72;1.58;;;;;;;;;;5033609;28;20049;-66
2022/08/20 14:15:04;;;;;;;4.28;1.50;;;;;;;;;;5033506;28;20072;-66
2022/08/20 14:17:32;;;;;;;4.13;1.33;;;;;;;;;;5031207;28;20166;-67
2022/08/20 14:20:07;;;;;;;5.22;1.45;;;;;;;;;;5030183;28;20050;-66
2022/08/20 14:22:34;;;;;;;3.08;1.30;;;;;;;;;;5033188;28;20571;-66
2022/08/20 14:25:02;;;;;;;4.82;1.88;;;;;;;;;;5033274;28;20115;-66
2022/08/20 14:27:30;;;;;;;4.63;1.65;;;;;;;;;;5033345;28;20103;-67
2022/08/20 14:29:57;;;;;;;5.68;1.80;;;;;;;;;;5032092;28;20050;-66
2022/08/20 14:32:24;;;;;;;5.85;1.50;;;;;;;;;;5033381;28;20045;-66
2022/08/20 14:34:50;;;;;;;4.15;1.48;;;;;;;;;;5033058;28;20111;-65
2022/08/20 14:37:22;;;;;;;6.07;1.95;;;;;;;;;;5033106;28;20045;-66
2022/08/20 14:39:50;;;;;;;4.85;1.50;;;;;;;;;;5033211;28;20470;-66
2022/08/20 14:42:17;;;;;;;5.28;2.08;;;;;;;;;;5033080;28;20081;-67
2022/08/20 14:44:43;;;;;;;5.28;1.65;;;;;;;;;;5032763;28;20513;-65
2022/08/20 14:47:10;;;;;;;4.28;1.80;;;;;;;;;;5032951;28;20088;-66
2022/08/20 14:49:36;;;;;;;;;;;;;;;;;;5033347;28;20080;-67
2022/08/20 14:52:03;;;;;;;4.10;1.50;;;;;;;;;;5032711;28;19921;-66
2022/08/20 14:54:29;;;;;;;5.32;1.83;;;;;;;;;;5032712;28;20087;-67
2022/08/20 14:56:55;;;;;;;;;;;;;;;;;;5031352;28;20076;-67
2022/08/20 14:59:27;;;;;;;5.15;2.38;;;;;;;;;;5032686;28;19925;-67
2022/08/20 15:01:53;;;;;;;5.07;1.80;;;;;;;;;;5031201;28;20088;-67
2022/08/20 15:04:22;;;;;;;4.63;2.03;;;;;;;;;;5032464;28;20056;-66